Time;durP1;ratioP1;P1;durP2;ratioP2;P2;SDS_P1;SDS_P2;PMS_P1;PMS_P2;Temp;Humidity;BMP_temperature;BMP_pressure;BME280_temperature;BME280_humidity;BME280_pressure;Samples;Min_cycle;Max_cycle;Signal;HPM_P1;HPM_P2
2022/12/31 00:00:08;;;;;;;1.10;1.00;;;17.60;85.30;;;;;;5090884;28;20451;-71
2022/12/31 00:02:37;;;;;;;1.03;1.03;;;17.70;85.00;;;;;;5090934;28;20449;-72
2022/12/31 00:05:06;;;;;;;1.17;1.07;;;17.70;84.90;;;;;;5090241;28;20515;-71
2022/12/31 00:07:35;;;;;;;1.73;1.00;;;17.70;84.90;;;;;;5090856;28;20508;-70
2022/12/31 00:10:02;;;;;;;0.90;0.90;;;17.60;85.30;;;;;;5090504;28;20485;-71
2022/12/31 00:12:32;;;;;;;0.73;0.73;;;17.70;85.70;;;;;;5091476;28;20960;-72
2022/12/31 00:14:58;;;;;;;0.93;0.93;;;17.70;85.40;;;;;;5090291;28;20496;-72
2022/12/31 00:17:25;;;;;;;0.90;0.90;;;17.70;85.20;;;;;;5090738;28;21050;-72
2022/12/31 00:19:54;;;;;;;1.53;0.90;;;17.60;85.20;;;;;;5089612;28;20482;-72
2022/12/31 00:22:21;;;;;;;1.07;0.90;;;17.60;85.00;;;;;;5091237;28;20455;-71
2022/12/31 00:24:48;;;;;;;0.60;0.60;;;17.60;85.40;;;;;;5090446;28;20454;-71
2022/12/31 00:27:15;;;;;;;1.40;0.77;;;17.60;85.20;;;;;;5090958;28;20454;-71
2022/12/31 00:29:42;;;;;;;0.70;0.70;;;17.60;85.40;;;;;;5090875;28;20447;-71
2022/12/31 00:32:10;;;;;;;1.00;0.97;;;17.70;85.50;;;;;;5090943;28;20493;-71
2022/12/31 00:34:37;;;;;;;0.80;0.80;;;17.70;85.70;;;;;;5090643;28;20447;-71
2022/12/31 00:37:05;;;;;;;1.37;0.80;;;17.70;85.70;;;;;;5089842;28;20474;-72
2022/12/31 00:39:32;;;;;;;1.40;0.90;;;17.70;86.30;;;;;;5091232;28;20460;-71
2022/12/31 00:41:59;;;;;;;0.60;0.60;;;17.70;86.70;;;;;;5094213;28;20449;-71
2022/12/31 00:44:26;;;;;;;1.00;1.00;;;17.70;87.30;;;;;;5094388;28;20446;-71
2022/12/31 00:46:53;;;;;;;1.20;1.10;;;17.70;87.30;;;;;;5093811;28;20478;-71
2022/12/31 00:49:20;;;;;;;0.80;0.80;;;17.70;87.40;;;;;;5094771;28;20462;-72
2022/12/31 00:51:47;;;;;;;0.80;0.80;;;17.60;87.20;;;;;;5093559;28;20513;-72
2022/12/31 00:54:16;;;;;;;0.80;0.80;;;17.60;87.30;;;;;;5094882;28;20519;-71
2022/12/31 00:56:43;;;;;;;0.77;0.77;;;17.70;87.50;;;;;;5094313;28;20442;-72
2022/12/31 00:59:10;;;;;;;0.93;0.93;;;17.60;87.40;;;;;;5094585;28;20450;-71
2022/12/31 01:01:39;;;;;;;2.03;0.90;;;17.70;87.40;;;;;;5094743;28;20879;-72
2022/12/31 01:04:08;;;;;;;1.07;1.00;;;17.70;86.80;;;;;;5093361;28;20455;-72
2022/12/31 01:06:35;;;;;;;0.90;0.90;;;17.70;86.60;;;;;;5094070;28;20451;-72
2022/12/31 01:09:04;;;;;;;1.73;1.00;;;17.80;86.30;;;;;;5094069;28;20512;-71
2022/12/31 01:11:32;;;;;;;0.90;0.90;;;17.70;86.00;;;;;;5094183;28;20478;-72
2022/12/31 01:14:01;;;;;;;1.60;1.00;;;17.60;85.60;;;;;;5093819;28;20796;-72
2022/12/31 01:16:30;;;;;;;1.00;1.00;;;17.70;86.00;;;;;;5094030;28;20533;-71
2022/12/31 01:18:59;;;;;;;1.10;1.10;;;17.80;85.80;;;;;;5093109;28;20988;-72
2022/12/31 01:21:28;;;;;;;1.00;0.97;;;17.80;85.40;;;;;;5093844;28;20961;-72
2022/12/31 01:23:55;;;;;;;2.87;1.30;;;17.80;84.90;;;;;;5093096;28;20446;-72
2022/12/31 01:26:24;;;;;;;1.07;0.97;;;17.80;84.70;;;;;;5094089;28;20856;-71
2022/12/31 01:28:52;;;;;;;2.10;1.30;;;17.90;84.40;;;;;;5093518;28;20450;-71
2022/12/31 01:31:21;;;;;;;1.00;0.97;;;18.00;83.90;;;;;;5093208;28;20504;-71
2022/12/31 01:33:48;;;;;;;1.07;0.97;;;18.00;83.60;;;;;;5093480;28;20848;-71
2022/12/31 01:36:17;;;;;;;1.00;1.00;;;18.00;82.90;;;;;;5093061;28;20466;-71
2022/12/31 01:38:45;;;;;;;1.17;1.03;;;18.00;82.50;;;;;;5093402;28;20457;-71
2022/12/31 01:41:14;;;;;;;0.97;0.97;;;18.00;81.90;;;;;;5093659;28;20457;-71
2022/12/31 01:43:45;;;;;;;0.80;0.80;;;18.00;81.80;;;;;;5095038;28;20450;-71
2022/12/31 01:46:19;;;;;;;0.87;0.80;;;18.00;81.70;;;;;;5092841;28;20991;-71
2022/12/31 01:48:50;;;;;;;3.23;0.90;;;18.00;81.00;;;;;;5093693;28;20462;-71
2022/12/31 01:51:17;;;;;;;0.90;0.90;;;18.00;80.80;;;;;;5092988;28;20435;-71
2022/12/31 01:53:47;;;;;;;1.87;1.00;;;18.00;80.10;;;;;;5093706;28;20482;-71
2022/12/31 01:56:14;;;;;;;0.93;0.90;;;18.00;79.50;;;;;;5093074;28;20447;-71
2022/12/31 01:58:45;;;;;;;1.30;0.90;;;18.10;78.60;;;;;;5091758;28;20809;-71
2022/12/31 02:01:19;;;;;;;1.43;0.97;;;18.20;78.40;;;;;;5092993;28;20504;-71
2022/12/31 02:03:47;;;;;;;1.00;1.00;;;18.20;77.70;;;;;;5093535;28;20866;-71
2022/12/31 02:06:20;;;;;;;1.03;0.93;;;18.30;77.50;;;;;;5093011;28;20450;-71
2022/12/31 02:08:48;;;;;;;0.70;0.70;;;18.30;76.20;;;;;;5093017;28;20442;-71
2022/12/31 02:11:35;;;;;;;2.10;1.00;;;18.30;76.60;;;;;;5092942;28;20493;-71
2022/12/31 02:14:05;;;;;;;1.00;0.93;;;18.30;76.10;;;;;;5092653;28;20431;-71
2022/12/31 02:16:39;;;;;;;3.00;1.00;;;18.30;76.10;;;;;;5092538;28;20641;-71
2022/12/31 02:19:29;;;;;;;1.30;1.10;;;18.40;75.40;;;;;;5092083;28;20482;-71
2022/12/31 02:22:03;;;;;;;1.43;1.00;;;18.50;75.30;;;;;;5092264;28;20476;-71
2022/12/31 02:24:58;;;;;;;2.63;1.13;;;18.50;75.00;;;;;;5092154;28;20441;-71
2022/12/31 02:27:39;;;;;;;1.07;1.00;;;18.50;74.10;;;;;;5093010;28;20446;-71
2022/12/31 02:30:12;;;;;;;1.00;0.80;;;18.50;74.60;;;;;;5090533;28;20617;-71
2022/12/31 02:32:52;;;;;;;1.60;1.10;;;18.60;74.30;;;;;;5092908;28;20545;-71
2022/12/31 02:35:27;;;;;;;0.80;0.77;;;18.70;74.00;;;;;;5092864;28;20938;-71
2022/12/31 02:37:57;;;;;;;1.40;1.20;;;18.70;73.20;;;;;;5091809;28;20430;-72
2022/12/31 02:40:25;;;;;;;0.73;0.73;;;18.70;73.40;;;;;;5092629;28;20786;-71
2022/12/31 02:42:52;;;;;;;1.57;0.90;;;18.80;73.20;;;;;;5091801;28;20205;-71
2022/12/31 02:45:29;;;;;;;0.93;0.90;;;18.80;72.80;;;;;;5091820;28;20972;-71
2022/12/31 02:48:15;;;;;;;1.37;0.80;;;18.80;72.90;;;;;;5091509;28;20553;-71
2022/12/31 02:50:55;;;;;;;1.73;0.70;;;18.80;73.10;;;;;;5092236;28;20526;-71
2022/12/31 02:53:40;;;;;;;0.90;0.90;;;18.80;72.90;;;;;;5091912;28;20470;-71
2022/12/31 02:56:15;;;;;;;1.67;1.00;;;18.80;72.30;;;;;;5091492;28;20438;-71
2022/12/31 03:04:35;;;;;;;1.40;1.20;;;19.00;71.60;;;;;;5091313;28;20438;-71
2022/12/31 03:07:05;;;;;;;1.13;1.03;;;19.00;71.60;;;;;;5091257;28;20287;-72
2022/12/31 03:09:32;;;;;;;1.53;1.20;;;19.00;72.40;;;;;;5091150;28;20454;-71
2022/12/31 03:14:44;;;;;;;0.80;0.80;;;19.10;71.70;;;;;;5075715;28;20191;-71
2022/12/31 03:17:13;;;;;;;1.23;0.90;;;19.00;72.20;;;;;;5091363;28;20451;-71
2022/12/31 03:22:27;;;;;;;0.87;0.70;;;19.00;72.20;;;;;;5091649;28;20406;-71
2022/12/31 03:27:42;;;;;;;1.07;1.00;;;19.10;72.20;;;;;;5091535;28;20472;-71
2022/12/31 03:30:11;;;;;;;0.83;0.83;;;19.10;72.00;;;;;;5090779;28;21083;-71
2022/12/31 03:32:39;;;;;;;0.90;0.83;;;19.10;71.70;;;;;;5091373;28;20817;-71
2022/12/31 03:35:08;;;;;;;1.40;1.00;;;19.10;71.70;;;;;;5091300;28;20474;-71
2022/12/31 03:37:35;;;;;;;1.17;0.93;;;19.10;71.90;;;;;;5091598;28;20478;-71
2022/12/31 03:40:02;;;;;;;1.20;0.73;;;19.20;71.70;;;;;;5090829;28;20442;-71
2022/12/31 03:42:29;;;;;;;2.57;0.87;;;19.20;71.60;;;;;;5090866;28;20699;-71
2022/12/31 03:44:56;;;;;;;0.70;0.70;;;19.20;71.70;;;;;;5090794;28;20859;-71
2022/12/31 03:47:23;;;;;;;0.60;0.60;;;19.20;72.60;;;;;;5091214;28;20232;-71
2022/12/31 03:49:54;;;;;;;0.63;0.60;;;19.20;71.70;;;;;;5091906;28;20462;-71
2022/12/31 03:52:21;;;;;;;1.17;1.10;;;19.30;71.90;;;;;;5090801;28;20216;-71
2022/12/31 03:54:48;;;;;;;1.23;0.80;;;19.30;71.50;;;;;;5091435;28;20451;-71
2022/12/31 03:57:17;;;;;;;0.70;0.70;;;19.30;71.80;;;;;;5090331;28;20211;-71
2022/12/31 03:59:44;;;;;;;1.20;0.90;;;19.30;71.70;;;;;;5090966;28;20446;-71
2022/12/31 04:02:11;;;;;;;0.60;0.60;;;19.40;71.90;;;;;;5090702;28;20486;-71
2022/12/31 04:04:38;;;;;;;0.83;0.80;;;19.30;71.60;;;;;;5090931;28;21004;-71
2022/12/31 04:07:07;;;;;;;1.03;0.77;;;19.30;71.50;;;;;;5090375;28;20204;-71
2022/12/31 04:09:34;;;;;;;1.07;0.80;;;19.30;71.40;;;;;;5091433;28;20338;-71
2022/12/31 04:12:01;;;;;;;0.90;0.80;;;19.30;71.20;;;;;;5090091;28;20958;-71
2022/12/31 04:14:28;;;;;;;1.30;0.80;;;19.40;71.30;;;;;;5092747;28;20459;-71
2022/12/31 04:16:55;;;;;;;0.77;0.70;;;19.40;71.40;;;;;;5095012;28;20239;-71
2022/12/31 04:19:22;;;;;;;1.00;0.70;;;19.40;71.50;;;;;;5094722;28;20200;-71
2022/12/31 04:21:49;;;;;;;1.00;0.90;;;19.30;71.70;;;;;;5095512;28;20451;-71
2022/12/31 04:24:17;;;;;;;1.33;0.90;;;19.40;72.00;;;;;;5094675;28;20478;-71
2022/12/31 04:26:47;;;;;;;1.67;0.90;;;19.30;72.70;;;;;;5094929;28;20598;-71
2022/12/31 04:29:17;;;;;;;2.50;0.90;;;19.40;72.10;;;;;;5094464;28;20790;-71
2022/12/31 04:31:44;;;;;;;0.77;0.77;;;19.40;71.90;;;;;;5094853;28;20488;-71
2022/12/31 04:34:11;;;;;;;1.47;1.10;;;19.50;72.00;;;;;;5094406;28;20224;-71
2022/12/31 04:36:39;;;;;;;1.03;1.00;;;19.40;71.90;;;;;;5076973;28;20471;-71
2022/12/31 04:39:06;;;;;;;1.77;0.90;;;19.40;71.90;;;;;;5074098;28;20528;-71
2022/12/31 04:41:35;;;;;;;1.10;0.77;;;19.30;71.70;;;;;;5074070;28;20274;-71
2022/12/31 04:44:02;;;;;;;0.83;0.83;;;19.40;72.10;;;;;;5087958;28;20301;-71
2022/12/31 04:46:31;;;;;;;0.80;0.80;;;19.40;71.60;;;;;;5094699;28;20569;-71
2022/12/31 04:48:58;;;;;;;0.90;0.90;;;19.40;71.60;;;;;;5094430;28;20200;-71
2022/12/31 04:51:27;;;;;;;2.10;0.90;;;19.50;71.60;;;;;;5094587;28;20999;-71
2022/12/31 04:53:54;;;;;;;1.27;0.90;;;19.60;71.40;;;;;;5094056;28;20252;-71
2022/12/31 04:56:22;;;;;;;1.13;0.93;;;19.50;72.10;;;;;;5093626;28;20458;-71
2022/12/31 04:58:50;;;;;;;1.40;1.10;;;19.50;71.10;;;;;;5095537;28;20213;-71
2022/12/31 05:01:17;;;;;;;1.13;1.03;;;19.50;71.10;;;;;;5094177;28;20212;-71
2022/12/31 05:03:45;;;;;;;0.90;0.90;;;19.60;71.40;;;;;;5094476;28;20854;-71
2022/12/31 05:06:17;;;;;;;1.23;0.90;;;19.50;71.20;;;;;;5094023;28;20450;-71
2022/12/31 05:08:44;;;;;;;0.83;0.83;;;19.60;71.50;;;;;;5093858;28;20224;-71
2022/12/31 05:11:13;;;;;;;1.27;1.07;;;19.40;72.00;;;;;;5094129;28;20473;-71
2022/12/31 05:13:40;;;;;;;1.30;1.20;;;19.50;71.40;;;;;;5093718;28;20216;-71
2022/12/31 05:16:09;;;;;;;2.33;1.13;;;19.50;71.40;;;;;;5094013;28;20446;-71
2022/12/31 05:18:37;;;;;;;0.90;0.90;;;19.50;71.60;;;;;;5093829;28;20257;-71
2022/12/31 05:21:04;;;;;;;1.57;0.97;;;19.40;71.50;;;;;;5093275;28;20450;-71
2022/12/31 05:23:37;;;;;;;0.77;0.77;;;19.50;71.70;;;;;;5092960;28;20446;-71
2022/12/31 05:26:07;;;;;;;1.27;0.90;;;19.40;71.90;;;;;;5092273;28;20640;-71
2022/12/31 05:28:34;;;;;;;2.13;1.00;;;19.40;71.60;;;;;;5093808;28;20478;-71
2022/12/31 05:31:01;;;;;;;1.00;0.90;;;19.40;71.60;;;;;;5093482;28;20540;-72
2022/12/31 05:33:29;;;;;;;0.70;0.70;;;19.50;71.50;;;;;;5093840;28;20578;-71
2022/12/31 05:35:57;;;;;;;0.57;0.57;;;19.60;71.40;;;;;;5093705;28;20315;-71
2022/12/31 05:38:24;;;;;;;0.97;0.77;;;19.60;71.50;;;;;;5093066;28;20203;-71
2022/12/31 05:40:59;;;;;;;1.37;0.67;;;19.60;71.20;;;;;;5093691;28;20250;-71
2022/12/31 05:43:27;;;;;;;0.70;0.70;;;19.50;71.00;;;;;;5093501;28;20185;-71
2022/12/31 05:45:54;;;;;;;0.83;0.83;;;19.50;71.10;;;;;;5093346;28;20240;-71
2022/12/31 05:48:21;;;;;;;1.70;0.83;;;19.60;71.00;;;;;;5093151;28;20549;-71
2022/12/31 05:50:50;;;;;;;0.70;0.70;;;19.60;71.00;;;;;;5092956;28;20966;-71
2022/12/31 05:53:17;;;;;;;1.70;0.90;;;19.60;70.90;;;;;;5092655;28;20486;-71
2022/12/31 05:55:46;;;;;;;1.20;1.00;;;19.60;70.90;;;;;;5093004;28;20450;-71
2022/12/31 05:58:13;;;;;;;1.00;1.00;;;19.60;70.90;;;;;;5092743;28;20300;-71
2022/12/31 06:00:40;;;;;;;1.13;0.87;;;19.60;70.70;;;;;;5092720;28;20216;-71
2022/12/31 06:03:08;;;;;;;1.63;0.90;;;19.60;70.70;;;;;;5092445;28;20192;-71
2022/12/31 06:05:35;;;;;;;1.13;0.90;;;19.60;70.40;;;;;;5092918;28;20938;-71
2022/12/31 06:08:03;;;;;;;1.03;1.00;;;19.70;70.40;;;;;;5092728;28;20454;-71
2022/12/31 06:10:30;;;;;;;1.03;0.93;;;19.50;70.30;;;;;;5093291;28;20304;-71
2022/12/31 06:12:57;;;;;;;0.97;0.90;;;19.50;70.40;;;;;;5093096;28;20280;-71
2022/12/31 06:15:24;;;;;;;0.83;0.80;;;19.50;70.40;;;;;;5092598;28;20247;-71
2022/12/31 06:17:51;;;;;;;0.77;0.77;;;19.50;70.40;;;;;;5092984;28;20731;-71
2022/12/31 06:20:18;;;;;;;1.00;0.80;;;19.50;70.20;;;;;;5092338;28;20477;-71
2022/12/31 06:22:45;;;;;;;1.10;1.10;;;19.50;70.10;;;;;;5092271;28;20478;-71
2022/12/31 06:25:14;;;;;;;0.90;0.90;;;19.50;70.00;;;;;;5092216;28;20511;-71
2022/12/31 06:27:41;;;;;;;1.13;1.03;;;19.50;70.00;;;;;;5093022;28;20291;-71
2022/12/31 06:30:09;;;;;;;0.77;0.77;;;19.50;70.00;;;;;;5092361;28;20519;-71
2022/12/31 06:32:38;;;;;;;3.60;0.70;;;19.50;69.80;;;;;;5092688;28;20200;-71
2022/12/31 06:35:06;;;;;;;0.93;0.70;;;19.60;69.70;;;;;;5091631;28;20201;-71
2022/12/31 06:37:33;;;;;;;1.33;1.23;;;19.50;69.50;;;;;;5091395;28;20208;-71
2022/12/31 06:40:01;;;;;;;0.73;0.73;;;19.40;69.40;;;;;;5092451;28;20670;-72
2022/12/31 06:42:30;;;;;;;1.77;1.20;;;19.40;69.40;;;;;;5092345;28;20200;-71
2022/12/31 06:44:58;;;;;;;1.00;1.00;;;19.40;69.40;;;;;;5089008;28;20695;-71
2022/12/31 06:47:25;;;;;;;0.90;0.90;;;19.50;69.50;;;;;;5091765;28;20509;-71
2022/12/31 06:49:53;;;;;;;1.00;0.90;;;19.50;69.30;;;;;;5091752;28;20470;-71
2022/12/31 06:52:20;;;;;;;0.73;0.73;;;19.30;69.10;;;;;;5091675;28;20450;-71
2022/12/31 06:54:48;;;;;;;0.80;0.80;;;19.40;69.50;;;;;;5091825;28;20228;-71
2022/12/31 06:57:15;;;;;;;1.33;1.10;;;19.50;69.20;;;;;;5091789;28;20266;-71
2022/12/31 06:59:45;;;;;;;1.90;0.90;;;19.50;69.00;;;;;;5092331;28;20447;-72
2022/12/31 07:02:26;;;;;;;0.80;0.80;;;19.40;68.90;;;;;;5091385;28;20454;-71
2022/12/31 07:05:27;;;;;;;2.23;1.20;;;19.50;68.80;;;;;;5091543;28;20431;-71
2022/12/31 07:08:05;;;;;;;1.20;0.97;;;19.40;68.60;;;;;;5033330;28;20447;-71
2022/12/31 07:10:43;;;;;;;1.27;1.00;;;19.50;68.90;;;;;;5072214;28;20189;-71
2022/12/31 07:13:28;;;;;;;1.73;0.80;;;19.30;68.50;;;;;;5071389;28;20286;-71
2022/12/31 07:16:22;;;;;;;1.00;0.90;;;19.50;68.60;;;;;;5082010;28;20192;-71
2022/12/31 07:18:55;;;;;;;1.97;1.10;;;19.50;68.30;;;;;;5091747;28;20546;-71
2022/12/31 07:21:30;;;;;;;0.73;0.70;;;19.50;68.60;;;;;;5070868;28;20436;-71
2022/12/31 07:23:58;;;;;;;1.00;0.90;;;19.60;68.50;;;;;;5071623;28;20900;-71
2022/12/31 07:26:46;;;;;;;0.80;0.80;;;19.50;68.40;;;;;;5089360;28;20457;-72
2022/12/31 07:29:23;;;;;;;1.07;1.03;;;19.50;68.30;;;;;;5091168;28;20431;-71
2022/12/31 07:32:02;;;;;;;2.40;1.10;;;19.50;68.30;;;;;;5091509;28;20446;-71
2022/12/31 07:34:41;;;;;;;1.17;0.90;;;19.50;68.40;;;;;;5090367;28;20470;-71
2022/12/31 07:37:15;;;;;;;1.60;1.07;;;19.50;68.30;;;;;;5090846;28;20470;-72
2022/12/31 07:40:01;;;;;;;1.37;0.90;;;19.50;68.30;;;;;;5091397;28;20220;-71
2022/12/31 07:42:38;;;;;;;1.07;1.00;;;19.50;68.30;;;;;;5090928;28;20477;-71
2022/12/31 07:45:14;;;;;;;0.77;0.77;;;19.50;68.00;;;;;;5090854;28;20438;-72
2022/12/31 07:47:43;;;;;;;0.70;0.70;;;19.40;68.20;;;;;;5090926;28;20430;-72
2022/12/31 07:50:15;;;;;;;1.90;0.80;;;19.40;68.20;;;;;;5090861;28;20499;-72
2022/12/31 07:52:43;;;;;;;1.70;0.90;;;19.50;68.20;;;;;;5091560;28;20496;-71
2022/12/31 07:55:10;;;;;;;1.57;1.00;;;19.50;67.90;;;;;;5090316;28;20714;-71
2022/12/31 07:57:47;;;;;;;1.70;0.90;;;19.50;67.80;;;;;;5091862;28;20446;-71
2022/12/31 08:00:16;;;;;;;0.80;0.80;;;19.60;67.80;;;;;;5090775;28;20283;-71
2022/12/31 08:03:04;;;;;;;1.10;0.90;;;19.60;67.40;;;;;;5090899;28;20200;-71
2022/12/31 08:05:40;;;;;;;1.60;1.20;;;19.60;67.30;;;;;;5089854;28;20275;-72
2022/12/31 08:08:24;;;;;;;0.90;0.90;;;19.70;67.10;;;;;;5091216;28;20227;-71
2022/12/31 08:11:06;;;;;;;0.80;0.80;;;19.70;66.70;;;;;;5091274;28;20522;-71
2022/12/31 08:13:34;;;;;;;1.70;1.30;;;19.70;67.00;;;;;;5091342;28;20216;-71
2022/12/31 08:16:02;;;;;;;1.60;1.00;;;19.70;67.00;;;;;;5090817;28;20200;-71
2022/12/31 08:18:31;;;;;;;0.80;0.80;;;19.70;66.50;;;;;;5091547;28;20201;-71
2022/12/31 08:21:05;;;;;;;1.30;1.00;;;19.80;66.40;;;;;;5091299;28;20300;-71
2022/12/31 08:23:40;;;;;;;1.17;0.80;;;19.80;66.90;;;;;;5090828;28;20267;-71
2022/12/31 08:26:21;;;;;;;1.77;1.10;;;19.80;66.00;;;;;;5091450;28;20358;-71
2022/12/31 08:29:02;;;;;;;1.17;1.00;;;19.80;65.50;;;;;;5075961;28;20192;-71
2022/12/31 08:31:36;;;;;;;2.13;0.90;;;19.80;65.50;;;;;;5090633;28;20265;-71
2022/12/31 08:34:12;;;;;;;1.33;0.83;;;19.90;65.70;;;;;;5091158;28;20476;-72
2022/12/31 08:36:49;;;;;;;0.80;0.80;;;20.00;65.50;;;;;;5070967;28;20312;-71
2022/12/31 08:39:27;;;;;;;2.40;0.80;;;20.10;65.00;;;;;;5081954;28;20192;-71
2022/12/31 08:41:57;;;;;;;1.80;0.90;;;20.10;64.60;;;;;;5091354;28;20196;-71
2022/12/31 08:44:33;;;;;;;1.30;1.20;;;20.20;64.40;;;;;;5090491;28;20468;-71
2022/12/31 08:47:11;;;;;;;1.13;1.03;;;20.20;64.10;;;;;;5087638;28;20761;-72
2022/12/31 08:49:41;;;;;;;1.53;1.10;;;20.30;64.10;;;;;;5084212;28;20213;-71
2022/12/31 08:52:14;;;;;;;1.53;1.03;;;20.30;63.90;;;;;;5090423;28;20242;-71
2022/12/31 08:54:42;;;;;;;1.43;0.90;;;20.40;63.50;;;;;;5090515;28;20257;-71
2022/12/31 08:57:16;;;;;;;1.97;1.20;;;20.40;63.30;;;;;;5090331;28;20212;-71
2022/12/31 08:59:50;;;;;;;1.73;0.90;;;20.50;63.00;;;;;;5089716;28;20653;-71
2022/12/31 09:02:49;;;;;;;0.80;0.80;;;20.50;63.30;;;;;;5076334;28;20204;-71
2022/12/31 09:05:24;;;;;;;1.03;0.97;;;20.60;62.80;;;;;;5093358;28;20288;-72
2022/12/31 09:08:04;;;;;;;1.53;1.27;;;20.60;62.50;;;;;;5093968;28;20192;-71
2022/12/31 09:10:35;;;;;;;0.83;0.83;;;20.60;62.00;;;;;;5093435;28;20188;-72
2022/12/31 09:13:11;;;;;;;0.97;0.70;;;20.60;61.80;;;;;;5093986;28;20231;-75
2022/12/31 09:15:43;;;;;;;1.07;0.97;;;20.70;62.10;;;;;;5096000;28;20311;-72
2022/12/31 09:18:12;;;;;;;1.37;1.00;;;20.70;61.90;;;;;;5093243;28;20201;-72
2022/12/31 09:20:41;;;;;;;1.10;1.00;;;20.70;61.50;;;;;;5094068;28;20205;-72
2022/12/31 09:23:08;;;;;;;1.20;0.90;;;20.80;61.60;;;;;;5093755;28;20200;-72
2022/12/31 09:25:41;;;;;;;1.17;0.90;;;20.90;61.50;;;;;;5094445;28;20199;-72
2022/12/31 09:28:16;;;;;;;2.70;1.17;;;21.00;61.10;;;;;;5094361;28;20441;-72
2022/12/31 09:30:50;;;;;;;1.70;1.00;;;20.90;60.80;;;;;;5095607;28;20221;-72
2022/12/31 09:33:30;;;;;;;1.10;0.80;;;21.00;60.80;;;;;;5094119;28;20199;-72
2022/12/31 09:36:05;;;;;;;1.20;1.10;;;21.10;59.90;;;;;;5095450;28;20636;-72
2022/12/31 09:38:43;;;;;;;1.67;1.20;;;21.30;60.30;;;;;;5094420;28;20691;-73
2022/12/31 09:41:16;;;;;;;0.70;0.70;;;21.40;59.60;;;;;;5094115;28;20188;-72
2022/12/31 09:44:21;;;;;;;0.80;0.77;;;21.50;59.70;;;;;;5093845;28;20271;-72
2022/12/31 09:47:35;;;;;;;0.93;0.93;;;21.60;59.30;;;;;;5093649;28;20316;-72
2022/12/31 09:50:28;;;;;;;0.70;0.70;;;21.70;58.50;;;;;;5050955;28;20205;-72
2022/12/31 09:53:13;;;;;;;1.30;0.70;;;21.80;59.00;;;;;;5094051;28;20204;-72
2022/12/31 09:55:48;;;;;;;2.23;0.90;;;21.70;58.70;;;;;;5093753;28;20227;-72
2022/12/31 09:58:40;;;;;;;2.23;1.00;;;21.80;59.00;;;;;;5093179;28;20198;-72
2022/12/31 10:01:17;;;;;;;1.93;1.10;;;21.90;59.00;;;;;;5093652;28;20224;-72
2022/12/31 10:04:13;;;;;;;1.53;1.20;;;22.00;58.30;;;;;;5093117;28;20196;-72
2022/12/31 10:06:48;;;;;;;1.33;1.10;;;22.00;57.60;;;;;;5093191;28;20188;-72
2022/12/31 10:09:43;;;;;;;1.17;0.97;;;22.10;57.80;;;;;;5092453;28;20192;-72
2022/12/31 10:13:02;;;;;;;1.23;1.00;;;22.10;57.70;;;;;;5083595;28;20287;-72
2022/12/31 10:15:59;;;;;;;1.13;1.03;;;22.30;57.30;;;;;;5030129;28;20261;-72
2022/12/31 10:18:39;;;;;;;1.10;1.10;;;22.40;57.10;;;;;;5029257;28;20202;-72
2022/12/31 10:21:28;;;;;;;2.03;0.93;;;22.40;56.90;;;;;;5084257;28;20211;-72
2022/12/31 10:24:23;;;;;;;1.37;1.00;;;22.60;56.50;;;;;;5093041;28;20219;-72
2022/12/31 10:27:15;;;;;;;0.87;0.87;;;22.70;55.60;;;;;;5090097;28;20193;-72
2022/12/31 10:29:46;;;;;;;1.10;0.97;;;22.70;55.70;;;;;;5092493;28;20197;-72
2022/12/31 10:32:20;;;;;;;0.87;0.87;;;22.80;55.90;;;;;;5092283;28;20271;-71
2022/12/31 10:34:55;;;;;;;1.80;1.10;;;22.70;55.70;;;;;;5093223;28;20687;-71
2022/12/31 10:37:29;;;;;;;1.07;0.97;;;22.90;55.70;;;;;;5092159;28;20321;-71
2022/12/31 10:40:12;;;;;;;1.63;1.07;;;22.90;55.70;;;;;;5093073;28;20203;-71
2022/12/31 10:43:07;;;;;;;1.07;0.90;;;23.00;55.00;;;;;;5092614;28;20189;-71
2022/12/31 10:46:09;;;;;;;1.97;0.80;;;23.00;54.80;;;;;;5092204;28;20554;-71
2022/12/31 10:49:36;;;;;;;0.77;0.77;;;23.10;54.20;;;;;;5072054;28;20648;-71
2022/12/31 10:52:53;;;;;;;0.90;0.90;;;23.10;54.60;;;;;;5030089;28;20202;-71
2022/12/31 10:55:45;;;;;;;1.40;1.00;;;23.10;54.20;;;;;;5018250;28;20229;-71
2022/12/31 10:58:41;;;;;;;0.67;0.60;;;23.10;54.00;;;;;;5078720;28;20201;-71
2022/12/31 11:01:17;;;;;;;0.87;0.77;;;23.10;53.70;;;;;;5092144;28;20201;-71
2022/12/31 11:04:14;;;;;;;1.63;0.70;;;23.10;54.00;;;;;;5091786;28;20200;-72
2022/12/31 11:07:20;;;;;;;1.00;0.93;;;23.20;54.00;;;;;;5064799;28;20261;-71
2022/12/31 11:10:19;;;;;;;0.97;0.90;;;23.10;53.10;;;;;;5076550;28;20185;-71
2022/12/31 11:13:18;;;;;;;1.03;0.93;;;23.30;53.20;;;;;;5071172;28;20260;-70
2022/12/31 11:16:08;;;;;;;0.90;0.80;;;23.40;53.20;;;;;;5091414;28;20256;-71
2022/12/31 11:18:47;;;;;;;1.40;0.97;;;23.50;52.90;;;;;;5091466;28;20635;-71
2022/12/31 11:21:25;;;;;;;1.63;0.90;;;23.60;52.60;;;;;;5092438;28;20279;-71
2022/12/31 11:24:03;;;;;;;0.80;0.80;;;23.60;52.30;;;;;;5091802;28;20648;-71
2022/12/31 11:26:40;;;;;;;2.63;1.03;;;23.70;52.70;;;;;;5090872;28;20196;-71
2022/12/31 11:29:24;;;;;;;0.70;0.70;;;23.80;52.50;;;;;;5092249;28;20196;-71
2022/12/31 11:32:12;;;;;;;0.73;0.73;;;23.90;51.70;;;;;;5092078;28;20195;-71
2022/12/31 11:35:07;;;;;;;2.70;1.20;;;24.00;51.90;;;;;;5057289;28;20315;-71
2022/12/31 11:37:44;;;;;;;1.23;0.70;;;24.10;51.40;;;;;;5085806;28;20207;-71
2022/12/31 11:40:46;;;;;;;1.00;0.87;;;24.10;51.60;;;;;;5092469;28;20715;-71
2022/12/31 11:43:30;;;;;;;0.73;0.73;;;24.20;51.10;;;;;;5091987;28;20192;-71
2022/12/31 11:46:23;;;;;;;1.47;1.37;;;24.30;50.90;;;;;;5092030;28;20323;-71
2022/12/31 11:49:12;;;;;;;1.73;0.90;;;24.40;50.80;;;;;;5091573;28;20200;-71
2022/12/31 11:52:07;;;;;;;0.70;0.70;;;24.40;50.70;;;;;;5091585;28;20219;-71
2022/12/31 11:54:45;;;;;;;1.57;0.93;;;24.60;49.80;;;;;;5090711;28;20536;-71
2022/12/31 11:57:21;;;;;;;1.20;1.10;;;24.60;50.00;;;;;;5091437;28;20275;-71
2022/12/31 11:59:51;;;;;;;1.53;0.90;;;24.70;50.10;;;;;;5092042;28;20195;-71
2022/12/31 12:02:26;;;;;;;1.10;1.00;;;24.90;50.00;;;;;;5091063;28;20208;-71
2022/12/31 12:04:56;;;;;;;0.80;0.80;;;25.10;49.70;;;;;;5091268;28;20187;-71
2022/12/31 12:07:24;;;;;;;1.03;0.93;;;25.30;49.00;;;;;;5090202;28;20565;-71
2022/12/31 12:09:54;;;;;;;1.30;1.17;;;25.40;49.20;;;;;;5090448;28;20249;-71
2022/12/31 12:12:22;;;;;;;1.00;0.90;;;25.60;48.30;;;;;;5090276;28;20204;-71
2022/12/31 12:14:52;;;;;;;0.77;0.60;;;25.80;48.10;;;;;;5091212;28;20720;-71
2022/12/31 12:17:31;;;;;;;1.10;0.87;;;26.00;47.60;;;;;;5089908;28;20283;-71
2022/12/31 12:20:02;;;;;;;0.87;0.77;;;26.30;46.80;;;;;;5091595;28;20196;-71
2022/12/31 12:22:31;;;;;;;1.10;0.70;;;26.40;46.50;;;;;;5090602;28;20203;-71
2022/12/31 12:25:03;;;;;;;0.63;0.63;;;26.40;46.60;;;;;;5090953;28;20192;-72
2022/12/31 12:27:33;;;;;;;1.47;0.70;;;26.60;46.40;;;;;;5090270;28;20188;-71
2022/12/31 12:30:09;;;;;;;2.17;0.77;;;26.70;46.00;;;;;;5090972;28;20204;-71
2022/12/31 12:32:36;;;;;;;0.67;0.60;;;27.00;45.60;;;;;;5090634;28;20254;-72
2022/12/31 12:35:16;;;;;;;1.80;0.90;;;27.10;45.10;;;;;;5090485;28;20231;-72
2022/12/31 12:37:43;;;;;;;1.43;0.70;;;27.40;44.60;;;;;;5092519;28;20198;-72
2022/12/31 12:40:20;;;;;;;1.20;0.80;;;27.90;44.50;;;;;;5095399;28;20430;-72
2022/12/31 12:42:48;;;;;;;1.63;0.97;;;28.40;43.10;;;;;;5094714;28;20196;-72
2022/12/31 12:45:17;;;;;;;1.70;0.87;;;28.70;42.80;;;;;;5094864;28;20205;-72
2022/12/31 12:47:46;;;;;;;0.57;0.57;;;28.90;42.00;;;;;;5093063;28;20196;-71
2022/12/31 12:50:17;;;;;;;0.97;0.87;;;29.20;41.70;;;;;;5083538;28;20201;-72
2022/12/31 12:53:01;;;;;;;1.73;0.73;;;29.20;41.10;;;;;;5094037;28;20699;-72
2022/12/31 12:55:40;;;;;;;1.13;0.87;;;29.30;40.90;;;;;;5093838;28;20223;-72
2022/12/31 12:58:20;;;;;;;0.77;0.70;;;29.10;41.00;;;;;;5056942;28;20239;-72
2022/12/31 13:00:56;;;;;;;1.30;0.77;;;29.00;41.20;;;;;;5091783;28;20268;-72
2022/12/31 13:03:56;;;;;;;0.90;0.83;;;28.90;41.30;;;;;;5094117;28;20294;-72
2022/12/31 13:06:36;;;;;;;1.00;1.00;;;28.60;40.80;;;;;;5093190;28;20240;-72
2022/12/31 13:09:19;;;;;;;0.77;0.77;;;28.20;41.80;;;;;;5084372;28;20242;-71
2022/12/31 13:11:55;;;;;;;0.77;0.70;;;27.80;41.80;;;;;;5094018;28;20280;-72
2022/12/31 13:14:32;;;;;;;0.60;0.60;;;27.20;42.50;;;;;;5093669;28;20285;-72
2022/12/31 13:17:07;;;;;;;1.80;0.60;;;26.60;43.50;;;;;;5093806;28;20243;-72
2022/12/31 13:19:41;;;;;;;1.20;1.10;;;26.40;43.90;;;;;;5088745;28;20232;-72
2022/12/31 13:22:19;;;;;;;0.60;0.60;;;26.50;44.30;;;;;;5093538;28;20203;-72
2022/12/31 13:24:55;;;;;;;1.03;0.93;;;26.50;44.00;;;;;;5093177;28;20648;-72
2022/12/31 13:27:28;;;;;;;1.10;1.00;;;26.50;44.10;;;;;;5073467;28;20197;-72
2022/12/31 13:29:59;;;;;;;1.30;1.00;;;26.40;44.50;;;;;;5093535;28;20644;-71
2022/12/31 13:32:37;;;;;;;0.90;0.80;;;26.30;44.80;;;;;;5093179;28;20196;-71
2022/12/31 13:35:21;;;;;;;1.00;0.90;;;26.20;44.80;;;;;;5092915;28;20680;-71
2022/12/31 13:37:53;;;;;;;1.03;0.77;;;25.90;44.90;;;;;;5093501;28;20189;-71